createdAt,value
2022-08-22T00:00:59.137Z,99.90
2022-08-22T00:02:44.327Z,99.90
2022-08-22T00:03:03.716Z,99.90
2022-08-22T00:03:10.471Z,99.90
2022-08-22T00:03:12.109Z,99.90
2022-08-22T00:03:38.183Z,99.90
2022-08-22T00:06:15.275Z,99.90
2022-08-22T00:08:53.080Z,99.90
2022-08-22T00:11:30.728Z,99.90
2022-08-22T00:14:08.353Z,99.90
2022-08-22T00:16:42.809Z,99.90
2022-08-22T00:19:19.602Z,99.90
2022-08-22T00:21:54.556Z,99.90
2022-08-22T00:24:29.277Z,99.90
2022-08-22T00:27:05.560Z,99.90
2022-08-22T00:29:40.654Z,99.90
2022-08-22T00:32:17.782Z,99.90
2022-08-22T00:34:54.028Z,99.90
2022-08-22T00:37:28.597Z,99.90
2022-08-22T00:40:04.359Z,99.90
2022-08-22T00:42:46.164Z,99.90
2022-08-22T00:45:28.226Z,99.90
2022-08-22T00:48:06.379Z,99.90
2022-08-22T00:50:53.345Z,99.90
2022-08-22T00:53:39.039Z,99.90
2022-08-22T00:56:45.204Z,99.90
2022-08-22T00:59:36.269Z,99.90
2022-08-22T01:02:13.736Z,99.90
2022-08-22T01:05:10.648Z,99.90
2022-08-22T01:07:51.507Z,99.90
2022-08-22T01:10:32.180Z,99.90
2022-08-22T01:13:15.045Z,99.90
2022-08-22T01:15:48.424Z,99.90
2022-08-22T01:18:30.794Z,99.90
2022-08-22T01:25:22.489Z,99.90
2022-08-22T01:28:27.400Z,99.90
2022-08-22T01:31:47.408Z,99.90
2022-08-22T01:37:43.459Z,99.90
2022-08-22T01:40:53.613Z,99.90
2022-08-22T01:43:58.714Z,99.90
2022-08-22T01:49:10.870Z,99.90
2022-08-22T01:51:46.621Z,99.90
2022-08-22T01:54:30.039Z,99.90
2022-08-22T01:57:05.558Z,99.90
2022-08-22T01:59:42.234Z,99.90
2022-08-22T02:05:31.581Z,99.90
2022-08-22T02:08:06.614Z,99.90
2022-08-22T02:10:48.227Z,99.90
2022-08-22T02:13:33.453Z,99.90
2022-08-22T02:16:11.725Z,99.90
2022-08-22T02:18:49.301Z,99.90
2022-08-22T02:21:24.725Z,99.90
2022-08-22T02:23:59.835Z,99.90
2022-08-22T02:26:40.456Z,99.90
2022-08-22T02:29:14.858Z,99.90
2022-08-22T02:31:49.369Z,99.90
2022-08-22T02:34:33.157Z,99.90
2022-08-22T02:37:12.182Z,99.90
2022-08-22T02:39:48.393Z,99.90
2022-08-22T02:42:24.902Z,99.90
2022-08-22T02:45:03.344Z,99.90
2022-08-22T02:47:38.601Z,99.90
2022-08-22T02:50:16.120Z,99.90
2022-08-22T02:52:56.620Z,99.90
2022-08-22T02:55:39.570Z,99.90
2022-08-22T02:58:14.746Z,99.90
2022-08-22T03:00:50.764Z,99.90
2022-08-22T03:03:25.796Z,99.90
2022-08-22T03:06:02.516Z,99.90
2022-08-22T03:08:36.191Z,99.90
2022-08-22T03:11:14.484Z,99.90
2022-08-22T03:13:59.480Z,99.90
2022-08-22T03:16:34.565Z,99.90
2022-08-22T03:19:13.246Z,99.90
2022-08-22T03:21:46.503Z,99.90
2022-08-22T03:24:21.442Z,99.90
2022-08-22T03:26:55.885Z,99.90
2022-08-22T03:29:30.504Z,99.90
2022-08-22T03:32:12.551Z,99.90
2022-08-22T03:34:59.841Z,99.90
2022-08-22T03:37:41.684Z,99.90
2022-08-22T03:40:31.711Z,99.90
2022-08-22T03:43:12.907Z,99.90
2022-08-22T03:49:59.378Z,99.90
2022-08-22T03:52:46.041Z,99.90
2022-08-22T03:55:24.064Z,99.90
2022-08-22T03:58:19.198Z,99.90
2022-08-22T04:01:08.436Z,99.90
2022-08-22T04:03:56.126Z,99.90
2022-08-22T04:06:56.449Z,99.90
2022-08-22T04:10:09.248Z,99.90
2022-08-22T04:13:06.640Z,99.90
2022-08-22T04:15:58.665Z,99.90
2022-08-22T04:18:52.689Z,99.90
2022-08-22T04:21:39.008Z,99.90
2022-08-22T04:24:19.358Z,99.90
2022-08-22T04:26:53.798Z,99.90
2022-08-22T04:29:28.188Z,99.90
2022-08-22T04:32:03.263Z,99.90
2022-08-22T04:34:37.602Z,99.90
2022-08-22T04:37:12.596Z,99.90
2022-08-22T04:39:48.423Z,99.90
2022-08-22T04:42:38.676Z,99.90
2022-08-22T04:44:59.881Z,99.90
2022-08-22T04:47:34.465Z,99.90
2022-08-22T04:50:09.269Z,99.90
2022-08-22T04:52:56.003Z,99.90
2022-08-22T04:55:32.044Z,99.90
2022-08-22T04:58:11.268Z,99.90
2022-08-22T05:00:46.610Z,99.90
2022-08-22T05:03:20.725Z,99.90
2022-08-22T05:05:54.062Z,99.90
2022-08-22T05:08:30.226Z,99.90
2022-08-22T05:11:04.334Z,99.90
2022-08-22T05:13:40.058Z,99.90
2022-08-22T05:16:15.655Z,99.90
2022-08-22T05:18:50.224Z,99.90
2022-08-22T05:21:27.183Z,99.90
2022-08-22T05:24:01.377Z,99.90
2022-08-22T05:26:36.631Z,99.90
2022-08-22T05:29:10.785Z,99.90
2022-08-22T05:31:45.414Z,99.90
2022-08-22T05:34:19.350Z,99.90
2022-08-22T05:36:53.992Z,99.90
2022-08-22T05:39:28.135Z,99.90
2022-08-22T05:42:01.884Z,99.90
2022-08-22T05:44:35.708Z,99.90
2022-08-22T05:47:10.870Z,99.90
2022-08-22T05:49:45.385Z,99.90
2022-08-22T05:52:20.501Z,99.90
2022-08-22T05:54:56.453Z,99.90
2022-08-22T05:57:31.461Z,99.90
2022-08-22T06:00:06.894Z,99.90
2022-08-22T06:02:50.536Z,99.90
2022-08-22T06:05:30.184Z,99.90
2022-08-22T06:08:10.201Z,99.90
2022-08-22T06:10:48.965Z,99.90
2022-08-22T06:13:24.695Z,99.90
2022-08-22T06:15:59.832Z,99.90
2022-08-22T06:18:33.625Z,99.90
2022-08-22T06:21:08.493Z,99.90
2022-08-22T06:23:43.167Z,99.90
2022-08-22T06:26:21.036Z,99.90
2022-08-22T06:28:55.165Z,99.90
2022-08-22T06:31:29.104Z,99.90
2022-08-22T06:34:03.911Z,99.90
2022-08-22T06:36:38.616Z,99.90
2022-08-22T06:39:14.344Z,99.90
2022-08-22T06:41:50.378Z,99.90
2022-08-22T06:44:25.931Z,99.90
2022-08-22T06:47:00.639Z,99.90
2022-08-22T06:49:34.487Z,99.90
2022-08-22T06:52:09.445Z,99.90
2022-08-22T06:54:43.691Z,99.90
2022-08-22T06:57:26.937Z,99.90
2022-08-22T07:00:00.049Z,99.90
2022-08-22T07:02:36.131Z,99.90
2022-08-22T07:05:10.347Z,99.90
2022-08-22T07:07:41.700Z,99.90
2022-08-22T07:10:15.805Z,99.90
2022-08-22T07:12:50.743Z,99.90
2022-08-22T07:15:26.765Z,99.90
2022-08-22T07:18:02.764Z,99.90
2022-08-22T07:20:37.004Z,99.90
2022-08-22T07:23:11.611Z,99.90
2022-08-22T07:25:50.156Z,99.90
2022-08-22T07:28:36.633Z,99.90
2022-08-22T07:31:01.478Z,99.90
2022-08-22T07:33:43.988Z,99.90
2022-08-22T07:36:25.069Z,99.90
2022-08-22T07:39:11.620Z,99.90
2022-08-22T07:41:49.672Z,99.90
2022-08-22T07:44:24.268Z,99.90
2022-08-22T07:47:00.567Z,99.90
2022-08-22T07:49:35.064Z,99.90
2022-08-22T07:52:10.342Z,99.90
2022-08-22T07:54:45.097Z,99.90
2022-08-22T07:57:21.078Z,99.90
2022-08-22T07:59:55.779Z,99.90
2022-08-22T08:02:28.275Z,99.90
2022-08-22T08:05:01.414Z,99.90
2022-08-22T08:07:33.382Z,99.90
2022-08-22T08:10:12.771Z,99.90
2022-08-22T08:12:44.177Z,99.90
2022-08-22T08:15:21.158Z,99.90
2022-08-22T08:17:55.449Z,99.90
2022-08-22T08:20:28.857Z,99.90
2022-08-22T08:23:02.387Z,99.90
2022-08-22T08:25:36.193Z,99.90
2022-08-22T08:28:34.766Z,99.90
2022-08-22T08:31:12.517Z,99.90
2022-08-22T08:33:47.392Z,99.90
2022-08-22T08:36:29.876Z,99.90
2022-08-22T08:39:08.975Z,99.90
2022-08-22T08:42:07.196Z,99.90
2022-08-22T08:44:49.363Z,99.90
2022-08-22T08:47:31.565Z,99.90
2022-08-22T08:50:20.976Z,99.90
2022-08-22T08:53:36.964Z,99.90
2022-08-22T08:56:16.610Z,99.90
2022-08-22T08:58:51.093Z,99.90
2022-08-22T09:01:41.564Z,99.90
2022-08-22T09:04:47.369Z,99.90
2022-08-22T09:07:38.794Z,99.90
2022-08-22T09:10:18.915Z,99.90
2022-08-22T09:13:11.339Z,99.90
2022-08-22T09:15:40.674Z,99.90
2022-08-22T09:18:56.190Z,99.90
2022-08-22T09:21:52.164Z,99.90
2022-08-22T09:24:44.295Z,99.90
2022-08-22T09:27:19.221Z,99.90
2022-08-22T09:32:33.633Z,99.90
2022-08-22T09:35:08.054Z,99.90
2022-08-22T09:37:46.331Z,99.90
2022-08-22T09:43:02.091Z,99.90
2022-08-22T09:45:54.232Z,99.90
2022-08-22T09:48:42.487Z,99.90
2022-08-22T09:51:31.681Z,99.90
2022-08-22T09:54:13.161Z,99.90
2022-08-22T09:56:51.225Z,99.90
2022-08-22T09:59:25.744Z,99.90
2022-08-22T10:02:00.872Z,99.90
2022-08-22T10:04:54.817Z,99.90
2022-08-22T10:07:45.360Z,99.90
2022-08-22T10:10:26.233Z,99.90
2022-08-22T10:13:01.587Z,99.90
2022-08-22T10:15:37.520Z,99.90
2022-08-22T10:18:17.616Z,99.90
2022-08-22T10:20:58.228Z,99.90
2022-08-22T10:23:32.676Z,99.90
2022-08-22T10:26:09.494Z,99.90
2022-08-22T10:28:44.420Z,99.90
2022-08-22T10:31:26.600Z,99.90
2022-08-22T10:34:09.295Z,99.90
2022-08-22T10:36:49.001Z,99.90
2022-08-22T10:39:25.645Z,99.90
2022-08-22T10:42:06.249Z,99.90
2022-08-22T10:44:41.761Z,99.90
2022-08-22T10:47:18.078Z,99.90
2022-08-22T10:49:54.787Z,99.90
2022-08-22T10:52:30.264Z,99.90
2022-08-22T10:55:05.819Z,99.90
2022-08-22T10:57:52.093Z,99.90
2022-08-22T11:00:25.705Z,99.90
2022-08-22T11:03:02.769Z,99.90
2022-08-22T11:05:42.940Z,99.90
2022-08-22T11:08:28.610Z,99.90
2022-08-22T11:11:11.464Z,99.90
2022-08-22T11:13:49.817Z,99.90
2022-08-22T11:16:31.256Z,99.90
2022-08-22T11:19:33.311Z,99.90
2022-08-22T11:22:09.964Z,99.90
2022-08-22T11:27:57.629Z,99.90
2022-08-22T11:30:36.546Z,99.90
2022-08-22T11:33:19.892Z,99.90
2022-08-22T11:35:56.112Z,99.90
2022-08-22T11:38:33.042Z,99.90
2022-08-22T11:41:08.893Z,99.90
2022-08-22T11:43:54.898Z,99.90
2022-08-22T11:46:31.228Z,99.90
2022-08-22T11:49:21.018Z,99.90
2022-08-22T11:55:19.422Z,99.90
2022-08-22T11:57:55.777Z,99.90
2022-08-22T12:00:37.082Z,99.90
2022-08-22T12:03:41.645Z,99.90
2022-08-22T12:06:34.749Z,99.90
2022-08-22T12:09:36.087Z,99.90
2022-08-22T12:12:22.196Z,99.90
2022-08-22T12:15:01.119Z,99.90
2022-08-22T12:17:54.997Z,99.90
2022-08-22T12:20:21.951Z,99.90
2022-08-22T12:23:18.179Z,99.90
2022-08-22T12:25:58.886Z,99.60
2022-08-22T12:28:35.543Z,99.20
2022-08-22T12:31:12.941Z,98.60
2022-08-22T12:34:09.748Z,99.80
2022-08-22T12:37:01.041Z,98.40
2022-08-22T12:39:46.894Z,98.20
2022-08-22T12:42:25.450Z,97.20
2022-08-22T12:45:19.464Z,97.00
2022-08-22T12:47:55.979Z,97.40
2022-08-22T12:50:35.941Z,97.20
2022-08-22T12:53:46.963Z,96.20
2022-08-22T12:56:24.309Z,97.80
2022-08-22T12:59:20.803Z,96.50
2022-08-22T13:01:54.755Z,96.70
2022-08-22T13:04:32.963Z,96.70
2022-08-22T13:07:09.380Z,95.90
2022-08-22T13:09:43.509Z,95.20
2022-08-22T13:12:25.179Z,95.10
2022-08-22T13:15:01.715Z,95.20
2022-08-22T13:17:36.051Z,94.30
2022-08-22T13:20:12.054Z,94.60
2022-08-22T13:22:45.620Z,94.40
2022-08-22T13:25:26.081Z,94.20
2022-08-22T13:27:59.038Z,95.70
2022-08-22T13:30:33.594Z,94.30
2022-08-22T13:33:10.280Z,93.60
2022-08-22T13:35:52.006Z,93.70
2022-08-22T13:38:25.884Z,94.10
2022-08-22T13:40:57.660Z,93.50
2022-08-22T13:43:31.871Z,92.80
2022-08-22T13:46:06.825Z,94.40
2022-08-22T13:48:51.473Z,93.90
2022-08-22T13:51:26.304Z,93.00
2022-08-22T13:54:02.321Z,93.40
2022-08-22T13:56:37.749Z,93.50
2022-08-22T13:59:29.268Z,92.90
2022-08-22T14:01:53.029Z,92.30
2022-08-22T14:04:35.910Z,93.60
2022-08-22T14:07:15.479Z,92.60
2022-08-22T14:09:53.027Z,93.00
2022-08-22T14:12:26.051Z,92.30
2022-08-22T14:15:00.869Z,92.00
2022-08-22T14:17:37.536Z,92.10
2022-08-22T14:20:12.652Z,91.40
2022-08-22T14:22:51.908Z,91.60
2022-08-22T14:25:24.760Z,91.90
2022-08-22T14:28:00.943Z,91.20
2022-08-22T14:30:35.554Z,91.50
2022-08-22T14:33:11.352Z,91.50
2022-08-22T14:35:52.865Z,91.20
2022-08-22T14:38:29.986Z,91.60
2022-08-22T14:41:03.300Z,91.20
2022-08-22T14:43:52.473Z,91.20
2022-08-22T14:46:30.579Z,90.70
2022-08-22T14:49:25.426Z,89.90
2022-08-22T14:52:02.891Z,89.30
2022-08-22T14:54:35.325Z,88.70
2022-08-22T14:57:10.255Z,88.30
2022-08-22T14:59:50.313Z,89.30
2022-08-22T15:02:26.252Z,88.20
2022-08-22T15:05:01.467Z,90.40
2022-08-22T15:07:36.307Z,90.10
2022-08-22T15:10:12.592Z,90.00
2022-08-22T15:12:49.594Z,90.40
2022-08-22T15:15:49.736Z,86.80
2022-08-22T15:18:19.684Z,87.10
2022-08-22T15:20:58.601Z,89.20
2022-08-22T15:23:32.998Z,90.50
2022-08-22T15:26:13.224Z,90.40
2022-08-22T15:28:52.840Z,89.10
2022-08-22T15:31:19.753Z,89.00
2022-08-22T15:33:51.697Z,89.00
2022-08-22T15:36:25.072Z,90.60
2022-08-22T15:38:58.909Z,92.00
2022-08-22T15:41:42.086Z,92.80
2022-08-22T15:44:32.428Z,92.30
2022-08-22T15:47:01.083Z,93.10
2022-08-22T15:49:35.404Z,92.50
2022-08-22T15:52:29.193Z,92.10
2022-08-22T15:55:21.985Z,92.10
2022-08-22T15:58:08.643Z,92.40
2022-08-22T16:00:45.095Z,92.80
2022-08-22T16:03:26.526Z,92.70
2022-08-22T16:06:00.583Z,92.60
2022-08-22T16:08:35.085Z,92.50
2022-08-22T16:11:22.458Z,93.00
2022-08-22T16:14:17.573Z,92.30
2022-08-22T16:17:03.995Z,92.50
2022-08-22T16:19:38.234Z,92.40
2022-08-22T16:22:17.161Z,92.40
2022-08-22T16:25:16.385Z,91.90
2022-08-22T16:27:59.476Z,92.40
2022-08-22T16:30:38.292Z,92.50
2022-08-22T16:33:18.313Z,92.60
2022-08-22T16:38:59.190Z,94.00
2022-08-22T16:41:37.684Z,94.00
2022-08-22T16:44:23.256Z,93.80
2022-08-22T16:46:57.607Z,93.70
2022-08-22T16:49:32.673Z,93.30
2022-08-22T16:53:06.844Z,94.50
2022-08-22T16:55:50.717Z,93.80
2022-08-22T16:59:00.876Z,93.90
2022-08-22T17:01:32.625Z,93.90
2022-08-22T17:04:18.909Z,94.50
2022-08-22T17:07:21.752Z,94.90
2022-08-22T17:10:12.737Z,94.40
2022-08-22T17:12:51.663Z,94.70
2022-08-22T17:15:29.240Z,94.60
2022-08-22T17:18:10.722Z,94.30
2022-08-22T17:20:42.673Z,93.80
2022-08-22T17:23:18.834Z,94.60
2022-08-22T17:25:56.706Z,94.00
2022-08-22T17:28:34.333Z,93.80
2022-08-22T17:31:09.500Z,93.90
2022-08-22T17:33:57.034Z,94.30
2022-08-22T17:36:34.392Z,94.20
2022-08-22T17:39:10.768Z,94.20
2022-08-22T17:41:46.592Z,96.60
2022-08-22T17:44:21.284Z,97.10
2022-08-22T17:46:56.148Z,98.10
2022-08-22T17:49:32.681Z,99.10
2022-08-22T17:52:08.844Z,99.00
2022-08-22T17:54:43.181Z,99.10
2022-08-22T17:57:18.900Z,99.20
2022-08-22T17:59:53.647Z,99.60
2022-08-22T18:02:28.018Z,99.90
2022-08-22T18:05:03.905Z,99.90
2022-08-22T18:07:41.496Z,99.90
2022-08-22T18:10:21.342Z,99.90
2022-08-22T18:13:02.423Z,99.90
2022-08-22T18:15:36.107Z,99.90
2022-08-22T18:18:10.400Z,99.90
2022-08-22T18:20:47.533Z,99.90
2022-08-22T18:23:35.528Z,99.90
2022-08-22T18:26:06.778Z,99.90
2022-08-22T18:28:42.341Z,99.90
2022-08-22T18:31:23.712Z,99.90
2022-08-22T18:33:58.404Z,99.90
2022-08-22T18:36:33.948Z,99.90
2022-08-22T18:39:08.373Z,99.90
2022-08-22T18:41:44.413Z,99.90
2022-08-22T18:44:20.209Z,99.90
2022-08-22T18:46:54.002Z,99.90
2022-08-22T18:49:56.701Z,99.90
2022-08-22T18:52:39.964Z,99.90
2022-08-22T18:55:43.523Z,99.90
2022-08-22T18:58:36.689Z,99.90
2022-08-22T19:01:31.073Z,99.90
2022-08-22T19:04:20.354Z,99.90
2022-08-22T19:07:12.115Z,99.90
2022-08-22T19:10:01.409Z,99.90
2022-08-22T19:12:44.171Z,99.90
2022-08-22T19:15:29.056Z,99.90
2022-08-22T19:18:12.733Z,99.90
2022-08-22T19:21:01.632Z,99.90
2022-08-22T19:23:51.042Z,99.90
2022-08-22T19:26:32.784Z,99.90
2022-08-22T19:29:10.824Z,99.90
2022-08-22T19:31:50.616Z,99.90
2022-08-22T19:34:38.675Z,99.90
2022-08-22T19:37:31.054Z,99.90
2022-08-22T19:40:06.167Z,99.90
2022-08-22T19:42:43.421Z,99.90
2022-08-22T19:45:26.402Z,99.90
2022-08-22T19:48:02.416Z,99.90
2022-08-22T19:50:37.447Z,99.90
2022-08-22T19:56:29.360Z,99.90
2022-08-22T19:59:19.941Z,99.90
2022-08-22T20:02:00.835Z,99.90
2022-08-22T20:04:39.984Z,99.90
2022-08-22T20:07:15.296Z,99.90
2022-08-22T20:09:49.878Z,99.90
2022-08-22T20:12:24.811Z,99.90
2022-08-22T20:14:56.614Z,99.90
2022-08-22T20:18:46.536Z,99.90
2022-08-22T20:23:23.701Z,99.90
2022-08-22T20:26:00.511Z,99.90
2022-08-22T20:32:07.982Z,99.90
2022-08-22T20:34:40.630Z,99.90
2022-08-22T20:37:35.915Z,99.90
2022-08-22T20:46:05.931Z,99.90
2022-08-22T20:49:00.605Z,99.90
2022-08-22T20:51:34.431Z,99.90
2022-08-22T20:54:40.021Z,99.90
2022-08-22T20:58:05.349Z,99.90
2022-08-22T21:00:40.249Z,99.90
2022-08-22T21:03:14.581Z,99.90
2022-08-22T21:05:46.839Z,99.90
2022-08-22T21:08:20.700Z,99.90
2022-08-22T21:11:15.779Z,99.90
2022-08-22T21:13:47.657Z,99.90
2022-08-22T21:16:21.467Z,99.90
2022-08-22T21:18:54.947Z,99.90
2022-08-22T21:21:29.101Z,99.90
2022-08-22T21:24:03.598Z,99.90
2022-08-22T21:26:38.374Z,99.90
2022-08-22T21:32:04.469Z,99.90
2022-08-22T21:34:39.305Z,99.90
2022-08-22T21:37:13.041Z,99.90
2022-08-22T21:39:47.477Z,99.90
2022-08-22T21:42:24.665Z,99.90
2022-08-22T21:45:00.764Z,99.90
2022-08-22T21:47:35.604Z,99.90
2022-08-22T21:50:12.401Z,99.90
2022-08-22T21:52:45.391Z,99.90
2022-08-22T21:55:20.053Z,99.90
2022-08-22T21:58:03.778Z,99.90
2022-08-22T22:00:49.694Z,99.90
2022-08-22T22:03:23.807Z,99.90
2022-08-22T22:05:58.480Z,99.90
2022-08-22T22:08:31.589Z,99.90
2022-08-22T22:11:04.769Z,99.90
2022-08-22T22:13:37.936Z,99.90
2022-08-22T22:16:12.497Z,99.90
2022-08-22T22:18:44.065Z,99.90
2022-08-22T22:21:15.578Z,99.90
2022-08-22T22:23:47.357Z,99.90
2022-08-22T22:26:19.284Z,99.90
2022-08-22T22:28:51.175Z,99.90
2022-08-22T22:31:22.617Z,99.90
2022-08-22T22:33:54.078Z,99.90
2022-08-22T22:36:27.679Z,99.90
2022-08-22T22:38:59.562Z,99.90
2022-08-22T22:41:31.252Z,99.90
2022-08-22T22:44:03.021Z,99.90
2022-08-22T22:46:34.437Z,99.90
2022-08-22T22:49:05.808Z,99.90
2022-08-22T22:51:37.204Z,99.90
2022-08-22T22:54:08.782Z,99.90
2022-08-22T22:56:41.834Z,99.90
2022-08-22T22:59:14.607Z,99.90
2022-08-22T23:02:04.377Z,99.90
2022-08-22T23:04:39.142Z,99.90
2022-08-22T23:07:12.538Z,99.90
2022-08-22T23:09:44.979Z,99.90
2022-08-22T23:12:23.316Z,99.90
2022-08-22T23:14:57.191Z,99.90
2022-08-22T23:17:32.041Z,99.90
2022-08-22T23:20:03.955Z,99.90
2022-08-22T23:22:35.881Z,99.90
2022-08-22T23:25:08.117Z,99.90
2022-08-22T23:27:40.356Z,99.90
2022-08-22T23:30:13.953Z,99.90
2022-08-22T23:32:45.365Z,99.90
2022-08-22T23:35:16.785Z,99.90
2022-08-22T23:37:48.363Z,99.90
2022-08-22T23:40:20.017Z,99.90
2022-08-22T23:42:51.506Z,99.90
2022-08-22T23:45:22.983Z,99.90
2022-08-22T23:47:54.468Z,99.90
2022-08-22T23:50:25.750Z,99.90
2022-08-22T23:52:57.436Z,99.90
2022-08-22T23:55:28.808Z,99.90
2022-08-22T23:58:00.413Z,99.90
